sensor_id;sensor_type;location;lat;lon;timestamp;pressure;altitude;pressure_sealevel;temperature;humidity
9935;BME280;5006;41.828;23.478;2023-04-28T00:00:53;90356.13;;;7.20;61.55
9935;BME280;5006;41.828;23.478;2023-04-28T00:02:00;90354.13;;;7.10;62.26
9935;BME280;5006;41.828;23.478;2023-04-28T00:03:06;90345.53;;;7.27;62.75
9935;BME280;5006;41.828;23.478;2023-04-28T00:04:12;90346.00;;;7.00;63.52
9935;BME280;5006;41.828;23.478;2023-04-28T00:05:17;90350.97;;;7.01;64.16
9935;BME280;5006;41.828;23.478;2023-04-28T00:06:25;90348.97;;;6.95;64.56
9935;BME280;5006;41.828;23.478;2023-04-28T00:07:29;90347.56;;;6.71;65.02
9935;BME280;5006;41.828;23.478;2023-04-28T00:08:35;90346.06;;;6.74;65.69
9935;BME280;5006;41.828;23.478;2023-04-28T00:09:40;90347.22;;;6.76;65.35
9935;BME280;5006;41.828;23.478;2023-04-28T00:10:46;90347.81;;;6.92;65.12
9935;BME280;5006;41.828;23.478;2023-04-28T00:11:51;90349.34;;;6.93;64.97
9935;BME280;5006;41.828;23.478;2023-04-28T00:12:57;90350.22;;;7.01;64.91
9935;BME280;5006;41.828;23.478;2023-04-28T00:14:02;90347.00;;;6.88;64.93
9935;BME280;5006;41.828;23.478;2023-04-28T00:15:09;90351.94;;;7.19;64.75
9935;BME280;5006;41.828;23.478;2023-04-28T00:16:14;90350.25;;;7.04;63.82
9935;BME280;5006;41.828;23.478;2023-04-28T00:17:20;90350.69;;;7.10;63.79
9935;BME280;5006;41.828;23.478;2023-04-28T00:18:26;90345.22;;;6.99;64.38
9935;BME280;5006;41.828;23.478;2023-04-28T00:19:32;90352.69;;;7.20;64.40
9935;BME280;5006;41.828;23.478;2023-04-28T00:20:38;90346.22;;;7.21;63.77
9935;BME280;5006;41.828;23.478;2023-04-28T00:21:45;90342.22;;;7.37;62.68
9935;BME280;5006;41.828;23.478;2023-04-28T00:22:50;90348.50;;;7.55;62.77
9935;BME280;5006;41.828;23.478;2023-04-28T00:23:56;90342.91;;;7.31;63.05
9935;BME280;5006;41.828;23.478;2023-04-28T00:25:01;90349.13;;;7.42;62.63
9935;BME280;5006;41.828;23.478;2023-04-28T00:26:08;90341.63;;;7.18;62.25
9935;BME280;5006;41.828;23.478;2023-04-28T00:27:14;90348.69;;;7.36;61.96
9935;BME280;5006;41.828;23.478;2023-04-28T00:28:19;90352.56;;;7.42;61.65
9935;BME280;5006;41.828;23.478;2023-04-28T00:29:24;90348.34;;;7.38;61.56
9935;BME280;5006;41.828;23.478;2023-04-28T00:30:30;90347.69;;;7.51;60.66
9935;BME280;5006;41.828;23.478;2023-04-28T00:31:35;90345.28;;;7.36;60.87
9935;BME280;5006;41.828;23.478;2023-04-28T00:32:41;90352.34;;;7.21;61.46
9935;BME280;5006;41.828;23.478;2023-04-28T00:33:46;90345.47;;;7.20;61.03
9935;BME280;5006;41.828;23.478;2023-04-28T00:34:53;90343.34;;;7.00;61.97
9935;BME280;5006;41.828;23.478;2023-04-28T00:35:59;90344.91;;;7.04;62.08
9935;BME280;5006;41.828;23.478;2023-04-28T00:37:06;90348.53;;;7.22;62.32
9935;BME280;5006;41.828;23.478;2023-04-28T00:38:11;90348.53;;;7.22;62.57
9935;BME280;5006;41.828;23.478;2023-04-28T00:39:17;90347.50;;;7.30;61.84
9935;BME280;5006;41.828;23.478;2023-04-28T00:40:22;90348.91;;;6.88;62.32
9935;BME280;5006;41.828;23.478;2023-04-28T00:41:28;90350.97;;;6.42;63.28
9935;BME280;5006;41.828;23.478;2023-04-28T00:42:33;90350.06;;;6.32;63.72
9935;BME280;5006;41.828;23.478;2023-04-28T00:43:43;90351.97;;;6.60;63.02
9935;BME280;5006;41.828;23.478;2023-04-28T00:44:49;90351.13;;;6.53;62.58
9935;BME280;5006;41.828;23.478;2023-04-28T00:45:55;90345.38;;;6.51;61.98
9935;BME280;5006;41.828;23.478;2023-04-28T00:47:00;90345.56;;;6.94;61.05
9935;BME280;5006;41.828;23.478;2023-04-28T00:48:08;90349.59;;;6.81;61.76
9935;BME280;5006;41.828;23.478;2023-04-28T00:49:14;90354.47;;;7.42;60.30
9935;BME280;5006;41.828;23.478;2023-04-28T00:50:20;90345.97;;;7.29;60.41
9935;BME280;5006;41.828;23.478;2023-04-28T00:51:25;90354.56;;;7.52;60.15
9935;BME280;5006;41.828;23.478;2023-04-28T00:52:35;90349.91;;;7.46;59.68
9935;BME280;5006;41.828;23.478;2023-04-28T00:53:42;90351.75;;;7.35;59.39
9935;BME280;5006;41.828;23.478;2023-04-28T00:54:49;90355.13;;;7.32;60.23
9935;BME280;5006;41.828;23.478;2023-04-28T00:55:55;90350.50;;;6.92;60.51
9935;BME280;5006;41.828;23.478;2023-04-28T00:57:02;90356.03;;;7.10;60.50
9935;BME280;5006;41.828;23.478;2023-04-28T00:58:08;90352.88;;;7.37;59.98
9935;BME280;5006;41.828;23.478;2023-04-28T00:59:13;90350.31;;;6.78;60.35
9935;BME280;5006;41.828;23.478;2023-04-28T01:00:20;90358.94;;;7.01;60.47
9935;BME280;5006;41.828;23.478;2023-04-28T01:01:25;90349.03;;;7.31;59.94
9935;BME280;5006;41.828;23.478;2023-04-28T01:02:31;90353.84;;;6.89;60.95
9935;BME280;5006;41.828;23.478;2023-04-28T01:03:38;90360.53;;;6.73;61.73
9935;BME280;5006;41.828;23.478;2023-04-28T01:04:44;90363.50;;;6.38;62.98
9935;BME280;5006;41.828;23.478;2023-04-28T01:05:50;90361.16;;;6.63;62.55
9935;BME280;5006;41.828;23.478;2023-04-28T01:06:57;90356.16;;;6.58;63.01
9935;BME280;5006;41.828;23.478;2023-04-28T01:08:05;90359.00;;;6.75;61.81
9935;BME280;5006;41.828;23.478;2023-04-28T01:09:12;90368.38;;;6.36;63.72
9935;BME280;5006;41.828;23.478;2023-04-28T01:10:17;90352.97;;;6.23;64.24
9935;BME280;5006;41.828;23.478;2023-04-28T01:11:23;90361.56;;;6.39;64.12
9935;BME280;5006;41.828;23.478;2023-04-28T01:12:54;90354.91;;;6.00;66.16
9935;BME280;5006;41.828;23.478;2023-04-28T01:14:00;90358.91;;;5.87;67.08
9935;BME280;5006;41.828;23.478;2023-04-28T01:15:17;90359.91;;;6.05;66.94
9935;BME280;5006;41.828;23.478;2023-04-28T01:16:26;90364.50;;;6.31;65.24
9935;BME280;5006;41.828;23.478;2023-04-28T01:17:32;90360.56;;;6.21;65.85
9935;BME280;5006;41.828;23.478;2023-04-28T01:18:41;90358.13;;;6.13;65.17
9935;BME280;5006;41.828;23.478;2023-04-28T01:19:50;90365.28;;;5.83;66.89
9935;BME280;5006;41.828;23.478;2023-04-28T01:20:57;90357.03;;;6.14;66.12
9935;BME280;5006;41.828;23.478;2023-04-28T01:22:02;90360.50;;;5.92;66.75
9935;BME280;5006;41.828;23.478;2023-04-28T01:23:12;90366.84;;;6.35;65.65
9935;BME280;5006;41.828;23.478;2023-04-28T01:24:19;90366.75;;;6.29;65.63
9935;BME280;5006;41.828;23.478;2023-04-28T01:25:25;90367.16;;;6.31;64.86
9935;BME280;5006;41.828;23.478;2023-04-28T01:26:31;90365.03;;;6.39;64.42
9935;BME280;5006;41.828;23.478;2023-04-28T01:27:39;90369.72;;;6.24;66.25
9935;BME280;5006;41.828;23.478;2023-04-28T01:28:45;90367.16;;;6.31;65.81
9935;BME280;5006;41.828;23.478;2023-04-28T01:29:51;90366.75;;;6.29;65.83
9935;BME280;5006;41.828;23.478;2023-04-28T01:30:56;90365.41;;;5.90;66.23
9935;BME280;5006;41.828;23.478;2023-04-28T01:32:04;90364.03;;;5.77;67.95
9935;BME280;5006;41.828;23.478;2023-04-28T01:33:11;90368.97;;;5.78;67.55
9935;BME280;5006;41.828;23.478;2023-04-28T01:34:17;90360.69;;;6.06;66.25
9935;BME280;5006;41.828;23.478;2023-04-28T01:35:22;90372.22;;;6.39;64.11
9935;BME280;5006;41.828;23.478;2023-04-28T01:36:29;90375.56;;;6.07;62.74
9935;BME280;5006;41.828;23.478;2023-04-28T01:37:34;90366.44;;;6.89;61.43
9935;BME280;5006;41.828;23.478;2023-04-28T01:38:40;90371.72;;;6.85;61.41
9935;BME280;5006;41.828;23.478;2023-04-28T01:39:47;90367.72;;;6.43;63.31
9935;BME280;5006;41.828;23.478;2023-04-28T01:40:53;90374.38;;;5.82;65.63
9935;BME280;5006;41.828;23.478;2023-04-28T01:41:58;90372.34;;;6.20;64.89
9935;BME280;5006;41.828;23.478;2023-04-28T01:43:05;90375.66;;;6.14;63.83
9935;BME280;5006;41.828;23.478;2023-04-28T01:44:10;90379.56;;;6.20;63.70
9935;BME280;5006;41.828;23.478;2023-04-28T01:45:16;90377.56;;;6.13;63.91
9935;BME280;5006;41.828;23.478;2023-04-28T01:46:21;90373.75;;;6.14;65.38
9935;BME280;5006;41.828;23.478;2023-04-28T01:47:28;90379.81;;;6.11;64.46
9935;BME280;5006;41.828;23.478;2023-04-28T01:48:33;90370.53;;;6.02;64.42
9935;BME280;5006;41.828;23.478;2023-04-28T01:49:39;90372.13;;;5.84;64.96
9935;BME280;5006;41.828;23.478;2023-04-28T01:50:45;90375.16;;;5.82;65.18
9935;BME280;5006;41.828;23.478;2023-04-28T01:51:51;90363.34;;;5.80;65.38
9935;BME280;5006;41.828;23.478;2023-04-28T01:52:56;90378.31;;;5.88;65.66
9935;BME280;5006;41.828;23.478;2023-04-28T01:54:02;90376.69;;;5.83;65.00
9935;BME280;5006;41.828;23.478;2023-04-28T01:55:10;90367.75;;;5.50;66.49
9935;BME280;5006;41.828;23.478;2023-04-28T01:56:16;90373.72;;;5.66;65.76
9935;BME280;5006;41.828;23.478;2023-04-28T01:57:22;90374.94;;;5.72;65.61
9935;BME280;5006;41.828;23.478;2023-04-28T01:58:28;90368.22;;;5.78;64.13
9935;BME280;5006;41.828;23.478;2023-04-28T01:59:34;90373.81;;;6.18;61.80
9935;BME280;5006;41.828;23.478;2023-04-28T02:00:41;90370.63;;;6.09;65.01
9935;BME280;5006;41.828;23.478;2023-04-28T02:01:46;90361.13;;;6.08;65.59
9935;BME280;5006;41.828;23.478;2023-04-28T02:02:52;90372.88;;;5.62;66.85
9935;BME280;5006;41.828;23.478;2023-04-28T02:03:57;90363.78;;;6.08;65.93
9935;BME280;5006;41.828;23.478;2023-04-28T02:05:04;90375.31;;;5.70;66.18
9935;BME280;5006;41.828;23.478;2023-04-28T02:06:09;90371.78;;;5.63;63.95
9935;BME280;5006;41.828;23.478;2023-04-28T02:07:15;90370.22;;;6.07;62.54
9935;BME280;5006;41.828;23.478;2023-04-28T02:08:21;90370.50;;;6.24;61.39
9935;BME280;5006;41.828;23.478;2023-04-28T02:09:26;90371.47;;;6.64;60.72
9935;BME280;5006;41.828;23.478;2023-04-28T02:10:33;90374.75;;;6.54;60.35
9935;BME280;5006;41.828;23.478;2023-04-28T02:11:39;90369.31;;;6.47;61.71
9935;BME280;5006;41.828;23.478;2023-04-28T02:12:43;90355.78;;;6.08;61.26
9935;BME280;5006;41.828;23.478;2023-04-28T02:13:50;90372.22;;;6.39;60.67
9935;BME280;5006;41.828;23.478;2023-04-28T02:14:55;90367.72;;;6.43;60.85
9935;BME280;5006;41.828;23.478;2023-04-28T02:16:01;90365.22;;;5.79;60.95
9935;BME280;5006;41.828;23.478;2023-04-28T02:17:06;90357.56;;;6.00;60.46
9935;BME280;5006;41.828;23.478;2023-04-28T02:18:12;90362.31;;;6.10;60.23
9935;BME280;5006;41.828;23.478;2023-04-28T02:19:19;90358.75;;;6.03;60.11
9935;BME280;5006;41.828;23.478;2023-04-28T02:20:25;90375.22;;;6.34;58.65
9935;BME280;5006;41.828;23.478;2023-04-28T02:21:30;90360.19;;;6.78;58.20
9935;BME280;5006;41.828;23.478;2023-04-28T02:22:36;90362.50;;;6.79;59.91
9935;BME280;5006;41.828;23.478;2023-04-28T02:23:41;90356.97;;;6.95;61.17
9935;BME280;5006;41.828;23.478;2023-04-28T02:24:48;90361.31;;;6.77;61.16
9935;BME280;5006;41.828;23.478;2023-04-28T02:26:00;90368.75;;;6.61;62.70
9935;BME280;5006;41.828;23.478;2023-04-28T02:27:07;90360.09;;;6.41;63.26
9935;BME280;5006;41.828;23.478;2023-04-28T02:28:13;90365.31;;;6.09;60.44
9935;BME280;5006;41.828;23.478;2023-04-28T02:29:19;90370.09;;;6.00;60.41
9935;BME280;5006;41.828;23.478;2023-04-28T02:30:25;90356.81;;;6.51;58.83
9935;BME280;5006;41.828;23.478;2023-04-28T02:31:30;90367.50;;;6.29;58.68
9935;BME280;5006;41.828;23.478;2023-04-28T02:32:37;90361.06;;;6.30;58.38
9935;BME280;5006;41.828;23.478;2023-04-28T02:33:42;90372.56;;;6.63;57.52
9935;BME280;5006;41.828;23.478;2023-04-28T02:34:52;90369.38;;;6.80;56.76
9935;BME280;5006;41.828;23.478;2023-04-28T02:35:58;90372.50;;;6.89;56.68
9935;BME280;5006;41.828;23.478;2023-04-28T02:37:04;90371.47;;;6.97;56.11
9935;BME280;5006;41.828;23.478;2023-04-28T02:38:10;90369.59;;;6.68;56.66
9935;BME280;5006;41.828;23.478;2023-04-28T02:39:17;90353.09;;;6.59;56.59
9935;BME280;5006;41.828;23.478;2023-04-28T02:40:22;90365.34;;;6.93;56.32
9935;BME280;5006;41.828;23.478;2023-04-28T02:41:30;90365.13;;;7.05;56.43
9935;BME280;5006;41.828;23.478;2023-04-28T02:42:35;90374.28;;;7.08;56.79
9935;BME280;5006;41.828;23.478;2023-04-28T02:43:41;90379.97;;;7.06;56.19
9935;BME280;5006;41.828;23.478;2023-04-28T02:44:47;90371.78;;;7.22;56.37
9935;BME280;5006;41.828;23.478;2023-04-28T02:45:54;90385.38;;;7.13;55.89
9935;BME280;5006;41.828;23.478;2023-04-28T02:46:58;90380.50;;;6.89;56.63
9935;BME280;5006;41.828;23.478;2023-04-28T02:48:06;90388.94;;;6.91;56.18
9935;BME280;5006;41.828;23.478;2023-04-28T02:49:10;90387.31;;;6.83;55.88
9935;BME280;5006;41.828;23.478;2023-04-28T02:50:18;90383.91;;;6.86;56.14
9935;BME280;5006;41.828;23.478;2023-04-28T02:51:23;90387.19;;;7.06;55.89
9935;BME280;5006;41.828;23.478;2023-04-28T02:52:30;90392.91;;;7.04;55.75
9935;BME280;5006;41.828;23.478;2023-04-28T02:53:35;90388.94;;;6.91;56.43
9935;BME280;5006;41.828;23.478;2023-04-28T02:54:41;90391.28;;;6.96;56.31
9935;BME280;5006;41.828;23.478;2023-04-28T02:55:46;90391.84;;;7.45;55.54
9935;BME280;5006;41.828;23.478;2023-04-28T02:56:54;90396.81;;;6.84;56.21
9935;BME280;5006;41.828;23.478;2023-04-28T02:57:59;90406.72;;;7.13;56.30
9935;BME280;5006;41.828;23.478;2023-04-28T02:59:06;90400.19;;;7.07;55.93
9935;BME280;5006;41.828;23.478;2023-04-28T03:00:12;90406.72;;;7.13;56.07
9935;BME280;5006;41.828;23.478;2023-04-28T03:01:25;90401.94;;;6.96;56.04
9935;BME280;5006;41.828;23.478;2023-04-28T03:02:30;90403.06;;;6.95;55.95
9935;BME280;5006;41.828;23.478;2023-04-28T03:03:37;90405.78;;;7.28;55.94
9935;BME280;5006;41.828;23.478;2023-04-28T03:04:42;90406.88;;;6.94;55.78
9935;BME280;5006;41.828;23.478;2023-04-28T03:05:48;90407.53;;;7.17;55.47
9935;BME280;5006;41.828;23.478;2023-04-28T03:06:54;90406.63;;;7.06;55.65
9935;BME280;5006;41.828;23.478;2023-04-28T03:08:01;90403.34;;;7.16;55.48
9935;BME280;5006;41.828;23.478;2023-04-28T03:09:07;90403.25;;;7.09;54.98
9935;BME280;5006;41.828;23.478;2023-04-28T03:10:12;90403.75;;;7.18;54.43
9935;BME280;5006;41.828;23.478;2023-04-28T03:11:17;90413.88;;;7.39;54.19
9935;BME280;5006;41.828;23.478;2023-04-28T03:12:26;90413.34;;;7.59;53.53
9935;BME280;5006;41.828;23.478;2023-04-28T03:13:30;90408.97;;;7.11;54.80
9935;BME280;5006;41.828;23.478;2023-04-28T03:14:37;90416.03;;;6.67;55.11
9935;BME280;5006;41.828;23.478;2023-04-28T03:15:43;90416.00;;;7.23;54.36
9935;BME280;5006;41.828;23.478;2023-04-28T03:16:49;90414.53;;;6.99;55.14
9935;BME280;5006;41.828;23.478;2023-04-28T03:17:55;90419.97;;;7.36;54.33
9935;BME280;5006;41.828;23.478;2023-04-28T03:19:01;90420.22;;;7.27;53.98
9935;BME280;5006;41.828;23.478;2023-04-28T03:20:08;90410.09;;;6.81;54.52
9935;BME280;5006;41.828;23.478;2023-04-28T03:21:13;90419.50;;;6.71;54.58
9935;BME280;5006;41.828;23.478;2023-04-28T03:22:19;90426.94;;;6.88;54.13
9935;BME280;5006;41.828;23.478;2023-04-28T03:23:24;90423.84;;;6.57;54.83
9935;BME280;5006;41.828;23.478;2023-04-28T03:24:30;90429.28;;;6.90;54.63
9935;BME280;5006;41.828;23.478;2023-04-28T03:25:35;90423.75;;;6.76;54.80
9935;BME280;5006;41.828;23.478;2023-04-28T03:26:41;90434.06;;;6.77;54.58
9935;BME280;5006;41.828;23.478;2023-04-28T03:27:48;90428.09;;;6.87;54.82
9935;BME280;5006;41.828;23.478;2023-04-28T03:28:54;90427.97;;;7.06;54.26
9935;BME280;5006;41.828;23.478;2023-04-28T03:30:00;90432.72;;;6.90;54.34
9935;BME280;5006;41.828;23.478;2023-04-28T03:31:06;90431.22;;;6.93;54.66
9935;BME280;5006;41.828;23.478;2023-04-28T03:32:12;90443.41;;;7.23;54.32
9935;BME280;5006;41.828;23.478;2023-04-28T03:33:17;90437.28;;;7.19;54.09
9935;BME280;5006;41.828;23.478;2023-04-28T03:34:22;90440.34;;;7.21;54.24
9935;BME280;5006;41.828;23.478;2023-04-28T03:35:29;90436.47;;;7.15;54.28
9935;BME280;5006;41.828;23.478;2023-04-28T03:36:35;90439.94;;;6.90;54.77
9935;BME280;5006;41.828;23.478;2023-04-28T03:37:48;90441.47;;;6.65;55.51
9935;BME280;5006;41.828;23.478;2023-04-28T03:38:53;90446.56;;;7.03;54.72
9935;BME280;5006;41.828;23.478;2023-04-28T03:40:00;90447.09;;;7.12;54.38
9935;BME280;5006;41.828;23.478;2023-04-28T03:41:07;90444.09;;;7.17;54.37
9935;BME280;5006;41.828;23.478;2023-04-28T03:42:31;90442.47;;;7.09;54.81
9935;BME280;5006;41.828;23.478;2023-04-28T03:43:49;90454.72;;;7.13;54.31
9935;BME280;5006;41.828;23.478;2023-04-28T03:45:18;90451.59;;;7.08;54.96
9935;BME280;5006;41.828;23.478;2023-04-28T03:46:24;90458.59;;;6.90;54.80
9935;BME280;5006;41.828;23.478;2023-04-28T03:47:30;90449.72;;;6.82;55.15
9935;BME280;5006;41.828;23.478;2023-04-28T03:48:36;90461.00;;;6.98;54.58
9935;BME280;5006;41.828;23.478;2023-04-28T03:49:42;90465.03;;;7.15;54.47
9935;BME280;5006;41.828;23.478;2023-04-28T03:50:47;90462.19;;;7.30;53.55
9935;BME280;5006;41.828;23.478;2023-04-28T03:51:53;90456.28;;;7.18;54.40
9935;BME280;5006;41.828;23.478;2023-04-28T03:52:59;90458.59;;;7.19;54.60
9935;BME280;5006;41.828;23.478;2023-04-28T03:54:05;90458.22;;;7.21;54.08
9935;BME280;5006;41.828;23.478;2023-04-28T03:55:10;90461.38;;;7.00;54.98
9935;BME280;5006;41.828;23.478;2023-04-28T03:56:16;90473.41;;;6.87;54.76
9935;BME280;5006;41.828;23.478;2023-04-28T03:57:21;90477.16;;;7.12;54.61
9935;BME280;5006;41.828;23.478;2023-04-28T03:58:28;90466.16;;;7.14;54.11
9935;BME280;5006;41.828;23.478;2023-04-28T03:59:35;90476.03;;;7.13;54.53
9935;BME280;5006;41.828;23.478;2023-04-28T04:00:41;90470.97;;;7.64;53.95
9935;BME280;5006;41.828;23.478;2023-04-28T04:01:47;90471.66;;;7.28;54.47
9935;BME280;5006;41.828;23.478;2023-04-28T04:02:53;90472.19;;;7.40;54.26
9935;BME280;5006;41.828;23.478;2023-04-28T04:03:58;90473.38;;;7.13;54.53
9935;BME280;5006;41.828;23.478;2023-04-28T04:05:05;90471.63;;;7.24;54.93
9935;BME280;5006;41.828;23.478;2023-04-28T04:06:10;90468.16;;;7.20;54.54
9935;BME280;5006;41.828;23.478;2023-04-28T04:07:16;90476.94;;;7.54;54.55
9935;BME280;5006;41.828;23.478;2023-04-28T04:08:21;90474.97;;;7.47;54.24
9935;BME280;5006;41.828;23.478;2023-04-28T04:09:27;90471.78;;;7.68;54.47
9935;BME280;5006;41.828;23.478;2023-04-28T04:10:32;90478.75;;;7.46;54.88
9935;BME280;5006;41.828;23.478;2023-04-28T04:11:38;90489.88;;;7.52;54.21
9935;BME280;5006;41.828;23.478;2023-04-28T04:12:43;90480.06;;;7.30;54.57
9935;BME280;5006;41.828;23.478;2023-04-28T04:13:49;90486.41;;;7.18;54.87
9935;BME280;5006;41.828;23.478;2023-04-28T04:14:58;90482.59;;;7.19;55.20
9935;BME280;5006;41.828;23.478;2023-04-28T04:16:05;90485.56;;;7.73;54.06
9935;BME280;5006;41.828;23.478;2023-04-28T04:17:10;90484.13;;;7.83;53.48
9935;BME280;5006;41.828;23.478;2023-04-28T04:18:17;90488.81;;;7.56;53.93
9935;BME280;5006;41.828;23.478;2023-04-28T04:19:41;90481.69;;;8.40;53.34
9935;BME280;5006;41.828;23.478;2023-04-28T04:20:49;90486.34;;;8.10;53.68
9935;BME280;5006;41.828;23.478;2023-04-28T04:21:54;90487.56;;;7.50;54.16
9935;BME280;5006;41.828;23.478;2023-04-28T04:23:00;90493.34;;;7.56;53.96
9935;BME280;5006;41.828;23.478;2023-04-28T04:24:06;90482.47;;;7.38;54.33
9935;BME280;5006;41.828;23.478;2023-04-28T04:25:12;90477.97;;;7.46;54.32
9935;BME280;5006;41.828;23.478;2023-04-28T04:26:17;90492.91;;;7.50;53.82
9935;BME280;5006;41.828;23.478;2023-04-28T04:27:25;90489.19;;;7.91;53.91
9935;BME280;5006;41.828;23.478;2023-04-28T04:28:30;90494.41;;;7.81;54.28
9935;BME280;5006;41.828;23.478;2023-04-28T04:29:37;90486.59;;;7.62;54.22
9935;BME280;5006;41.828;23.478;2023-04-28T04:30:51;90489.69;;;7.67;54.25
9935;BME280;5006;41.828;23.478;2023-04-28T04:31:57;90491.38;;;7.49;54.37
9935;BME280;5006;41.828;23.478;2023-04-28T04:33:02;90485.06;;;7.97;53.52
9935;BME280;5006;41.828;23.478;2023-04-28T04:34:08;90488.75;;;7.86;53.79
9935;BME280;5006;41.828;23.478;2023-04-28T04:35:13;90484.56;;;8.21;53.63
9935;BME280;5006;41.828;23.478;2023-04-28T04:36:19;90494.66;;;8.02;53.24
9935;BME280;5006;41.828;23.478;2023-04-28T04:37:24;90478.88;;;7.90;54.01
9935;BME280;5006;41.828;23.478;2023-04-28T04:38:37;90489.31;;;7.36;54.38
9935;BME280;5006;41.828;23.478;2023-04-28T04:39:51;90486.81;;;9.09;52.32
9935;BME280;5006;41.828;23.478;2023-04-28T04:40:58;90483.28;;;8.08;53.51
9935;BME280;5006;41.828;23.478;2023-04-28T04:42:03;90489.56;;;9.20;51.51
9935;BME280;5006;41.828;23.478;2023-04-28T04:43:18;90490.88;;;9.47;50.73
9935;BME280;5006;41.828;23.478;2023-04-28T04:44:26;90488.34;;;9.10;51.54
9935;BME280;5006;41.828;23.478;2023-04-28T04:45:32;90495.06;;;9.44;50.68
9935;BME280;5006;41.828;23.478;2023-04-28T04:46:39;90498.19;;;8.99;51.40
9935;BME280;5006;41.828;23.478;2023-04-28T04:47:46;90485.84;;;9.42;51.14
9935;BME280;5006;41.828;23.478;2023-04-28T04:48:51;90486.44;;;9.82;50.41
9935;BME280;5006;41.828;23.478;2023-04-28T04:49:57;90499.44;;;9.80;50.14
9935;BME280;5006;41.828;23.478;2023-04-28T04:51:02;90489.09;;;9.79;50.27
9935;BME280;5006;41.828;23.478;2023-04-28T04:52:09;90489.22;;;10.03;50.20
9935;BME280;5006;41.828;23.478;2023-04-28T04:53:14;90490.09;;;10.49;49.61
9935;BME280;5006;41.828;23.478;2023-04-28T04:54:21;90493.75;;;9.92;50.34
9935;BME280;5006;41.828;23.478;2023-04-28T04:55:27;90500.81;;;10.42;49.45
9935;BME280;5006;41.828;23.478;2023-04-28T04:56:32;90497.66;;;10.05;49.52
9935;BME280;5006;41.828;23.478;2023-04-28T04:57:38;90482.84;;;9.54;49.80
9935;BME280;5006;41.828;23.478;2023-04-28T04:58:44;90491.91;;;10.07;49.59
9935;BME280;5006;41.828;23.478;2023-04-28T05:00:17;90494.69;;;10.45;48.69
9935;BME280;5006;41.828;23.478;2023-04-28T05:01:23;90504.66;;;10.52;48.16
9935;BME280;5006;41.828;23.478;2023-04-28T05:02:30;90509.13;;;10.06;49.37
9935;BME280;5006;41.828;23.478;2023-04-28T05:03:36;90505.00;;;10.36;48.69
9935;BME280;5006;41.828;23.478;2023-04-28T05:04:41;90515.63;;;10.05;49.29
9935;BME280;5006;41.828;23.478;2023-04-28T05:05:48;90500.44;;;9.48;49.32
9935;BME280;5006;41.828;23.478;2023-04-28T05:06:59;90510.44;;;10.81;47.97
9935;BME280;5006;41.828;23.478;2023-04-28T05:08:06;90510.06;;;10.93;48.13
9935;BME280;5006;41.828;23.478;2023-04-28T05:09:12;90514.31;;;9.74;48.89
9935;BME280;5006;41.828;23.478;2023-04-28T05:10:18;90519.09;;;10.16;48.41
9935;BME280;5006;41.828;23.478;2023-04-28T05:11:23;90526.03;;;10.24;48.55
9935;BME280;5006;41.828;23.478;2023-04-28T05:12:30;90515.78;;;10.64;48.31
9935;BME280;5006;41.828;23.478;2023-04-28T05:13:35;90519.22;;;10.71;47.97
9935;BME280;5006;41.828;23.478;2023-04-28T05:14:42;90510.03;;;10.79;47.84
9935;BME280;5006;41.828;23.478;2023-04-28T05:15:47;90526.91;;;10.87;47.93
9935;BME280;5006;41.828;23.478;2023-04-28T05:17:08;90529.16;;;10.54;48.19
9935;BME280;5006;41.828;23.478;2023-04-28T05:18:17;90522.63;;;10.37;48.78
9935;BME280;5006;41.828;23.478;2023-04-28T05:19:23;90533.25;;;10.09;48.42
9935;BME280;5006;41.828;23.478;2023-04-28T05:20:28;90516.91;;;10.60;48.58
9935;BME280;5006;41.828;23.478;2023-04-28T05:21:35;90530.66;;;10.30;48.64
9935;BME280;5006;41.828;23.478;2023-04-28T05:22:40;90526.44;;;10.33;48.74
9935;BME280;5006;41.828;23.478;2023-04-28T05:23:46;90520.41;;;11.26;47.74
9935;BME280;5006;41.828;23.478;2023-04-28T05:24:51;90523.44;;;11.35;47.25
9935;BME280;5006;41.828;23.478;2023-04-28T05:25:57;90519.97;;;11.42;47.61
9935;BME280;5006;41.828;23.478;2023-04-28T05:27:03;90524.63;;;11.13;47.99
9935;BME280;5006;41.828;23.478;2023-04-28T05:28:10;90530.72;;;11.45;47.31
9935;BME280;5006;41.828;23.478;2023-04-28T05:29:14;90527.56;;;12.06;46.93
9935;BME280;5006;41.828;23.478;2023-04-28T05:30:20;90521.38;;;12.09;46.27
9935;BME280;5006;41.828;23.478;2023-04-28T05:31:26;90527.88;;;12.19;45.82
9935;BME280;5006;41.828;23.478;2023-04-28T05:32:33;90540.69;;;10.65;47.60
9935;BME280;5006;41.828;23.478;2023-04-28T05:33:40;90531.91;;;10.95;48.08
9935;BME280;5006;41.828;23.478;2023-04-28T05:34:45;90523.06;;;11.16;48.02
9935;BME280;5006;41.828;23.478;2023-04-28T05:35:50;90524.25;;;11.11;48.74
9935;BME280;5006;41.828;23.478;2023-04-28T05:36:57;90534.19;;;10.93;49.32
9935;BME280;5006;41.828;23.478;2023-04-28T05:38:05;90533.72;;;12.03;47.28
9935;BME280;5006;41.828;23.478;2023-04-28T05:39:11;90531.34;;;12.16;46.96
9935;BME280;5006;41.828;23.478;2023-04-28T05:40:17;90527.50;;;12.17;46.71
9935;BME280;5006;41.828;23.478;2023-04-28T05:41:23;90534.97;;;12.67;46.84
9935;BME280;5006;41.828;23.478;2023-04-28T05:42:28;90531.19;;;12.51;46.92
9935;BME280;5006;41.828;23.478;2023-04-28T05:43:36;90540.28;;;11.88;47.98
9935;BME280;5006;41.828;23.478;2023-04-28T05:44:41;90536.78;;;10.34;49.64
9935;BME280;5006;41.828;23.478;2023-04-28T05:45:47;90531.59;;;12.49;47.70
9935;BME280;5006;41.828;23.478;2023-04-28T05:46:52;90538.47;;;12.54;46.73
9935;BME280;5006;41.828;23.478;2023-04-28T05:48:02;90537.06;;;13.00;46.35
9935;BME280;5006;41.828;23.478;2023-04-28T05:49:11;90534.59;;;13.26;46.06
9935;BME280;5006;41.828;23.478;2023-04-28T05:50:16;90540.19;;;13.46;45.18
9935;BME280;5006;41.828;23.478;2023-04-28T05:51:23;90535.41;;;13.20;45.22
9935;BME280;5006;41.828;23.478;2023-04-28T05:52:27;90534.38;;;13.51;46.04
9935;BME280;5006;41.828;23.478;2023-04-28T05:53:33;90537.66;;;13.28;45.69
9935;BME280;5006;41.828;23.478;2023-04-28T05:54:38;90547.41;;;12.30;47.22
9935;BME280;5006;41.828;23.478;2023-04-28T05:55:44;90533.94;;;12.40;46.36
9935;BME280;5006;41.828;23.478;2023-04-28T05:56:50;90536.66;;;12.37;46.64
9935;BME280;5006;41.828;23.478;2023-04-28T05:57:56;90538.72;;;12.80;45.29
9935;BME280;5006;41.828;23.478;2023-04-28T05:59:03;90541.69;;;13.03;45.00
9935;BME280;5006;41.828;23.478;2023-04-28T06:00:10;90538.03;;;12.62;45.82
9935;BME280;5006;41.828;23.478;2023-04-28T06:01:18;90535.75;;;13.69;45.39
9935;BME280;5006;41.828;23.478;2023-04-28T06:02:24;90548.34;;;12.78;46.56